Time;durP1;ratioP1;P1;durP2;ratioP2;P2;SDS_P1;SDS_P2;PMS_P1;PMS_P2;Temp;Humidity;BMP_temperature;BMP_pressure;BME280_temperature;BME280_humidity;BME280_pressure;Samples;Min_cycle;Max_cycle;Signal;HPM_P1;HPM_P2
2021/03/02 00:01:05;;;;;;;31.07;19.10;;;3.00;99.90;;;;;;5034855;28;20178;-67
2021/03/02 00:03:37;;;;;;;33.70;19.23;;;3.00;99.90;;;;;;5034699;28;20180;-67
2021/03/02 00:06:04;;;;;;;30.53;19.93;;;3.00;99.90;;;;;;5034689;28;20213;-67
2021/03/02 00:08:30;;;;;;;32.23;19.23;;;3.00;99.90;;;;;;5033874;28;20233;-67
2021/03/02 00:11:00;;;;;;;37.80;19.07;;;3.00;99.90;;;;;;5034146;28;20224;-67
2021/03/02 00:13:25;;;;;;;29.27;18.80;;;2.90;99.90;;;;;;5017052;28;20214;-67
2021/03/02 00:15:51;;;;;;;40.30;21.03;;;2.90;99.90;;;;;;5034471;28;20724;-67
2021/03/02 00:18:22;;;;;;;41.10;22.17;;;2.80;99.90;;;;;;5034746;28;20258;-67
2021/03/02 00:20:53;;;;;;;39.40;21.63;;;2.80;99.90;;;;;;5034119;28;20321;-67
2021/03/02 00:23:25;;;;;;;48.93;24.67;;;2.70;99.90;;;;;;5034708;28;20168;-67
2021/03/02 00:25:55;;;;;;;52.80;24.40;;;2.70;99.90;;;;;;5034313;28;20307;-67
2021/03/02 00:28:24;;;;;;;47.27;22.80;;;2.70;99.90;;;;;;5034399;28;20174;-68
2021/03/02 00:30:51;;;;;;;39.67;20.07;;;2.60;99.90;;;;;;5034053;28;20183;-67
2021/03/02 00:33:18;;;;;;;40.33;20.87;;;2.60;99.90;;;;;;5034836;28;20672;-67
2021/03/02 00:35:43;;;;;;;42.13;21.73;;;2.60;99.90;;;;;;5034605;28;20191;-67
2021/03/02 00:38:09;;;;;;;43.13;21.93;;;2.60;99.90;;;;;;5034684;28;20250;-67
2021/03/02 00:40:44;;;;;;;38.87;19.43;;;2.50;99.90;;;;;;5034151;28;20649;-67
2021/03/02 00:43:10;;;;;;;33.70;18.23;;;2.60;99.90;;;;;;5035233;28;20186;-67
2021/03/02 00:45:35;;;;;;;37.90;20.40;;;2.50;99.90;;;;;;5034485;28;20195;-67
2021/03/02 00:48:01;;;;;;;34.33;18.43;;;2.50;99.90;;;;;;5034732;28;20275;-66
2021/03/02 00:50:28;;;;;;;34.73;17.63;;;2.40;99.90;;;;;;5033866;28;20183;-66
2021/03/02 00:52:54;;;;;;;30.57;17.27;;;2.40;99.90;;;;;;5035949;28;20214;-66
2021/03/02 00:55:19;;;;;;;33.77;17.07;;;2.40;99.90;;;;;;5034041;28;20196;-67
2021/03/02 00:57:45;;;;;;;29.63;17.30;;;2.40;99.90;;;;;;5033601;28;20221;-67
2021/03/02 01:00:12;;;;;;;28.03;15.13;;;2.40;99.90;;;;;;5033673;28;20672;-67
2021/03/02 01:02:37;;;;;;;31.17;15.70;;;2.40;99.90;;;;;;5033591;28;20176;-67
2021/03/02 01:05:07;;;;;;;26.87;15.37;;;2.40;99.90;;;;;;5033954;28;20198;-67
2021/03/02 01:07:34;;;;;;;26.33;15.07;;;2.30;99.90;;;;;;5033940;28;20242;-66
2021/03/02 01:10:00;;;;;;;28.83;15.03;;;2.30;99.90;;;;;;5032464;28;20219;-67
2021/03/02 01:12:28;;;;;;;27.07;14.03;;;2.30;99.90;;;;;;5033516;28;20669;-67
2021/03/02 01:14:58;;;;;;;26.73;14.87;;;2.30;99.90;;;;;;5033851;28;20578;-67
2021/03/02 01:17:24;;;;;;;25.40;14.00;;;2.30;99.90;;;;;;5033402;28;20627;-67
2021/03/02 01:19:50;;;;;;;24.70;12.93;;;2.20;99.90;;;;;;5033396;28;20178;-66
2021/03/02 01:22:15;;;;;;;25.70;15.17;;;2.20;99.90;;;;;;5033308;28;20649;-66
2021/03/02 01:24:41;;;;;;;29.37;16.27;;;2.20;99.90;;;;;;5033689;28;20592;-67
2021/03/02 01:27:07;;;;;;;31.40;15.83;;;2.20;99.90;;;;;;5033110;28;20727;-67
2021/03/02 01:29:33;;;;;;;27.50;14.83;;;2.20;99.90;;;;;;5033368;28;20519;-67
2021/03/02 01:31:58;;;;;;;29.33;15.60;;;2.20;99.90;;;;;;5015145;28;20645;-66
2021/03/02 01:34:24;;;;;;;22.87;14.50;;;2.20;99.90;;;;;;5015735;28;20600;-67
2021/03/02 01:36:50;;;;;;;24.20;13.63;;;2.30;99.90;;;;;;5034475;28;20211;-66
2021/03/02 01:39:16;;;;;;;28.17;14.87;;;2.20;99.90;;;;;;5033138;28;20179;-66
2021/03/02 01:41:48;;;;;;;30.03;14.57;;;2.30;99.90;;;;;;5036979;28;20193;-67
2021/03/02 01:44:13;;;;;;;24.00;14.97;;;2.20;99.90;;;;;;5033133;28;20663;-67
2021/03/02 01:46:39;;;;;;;24.33;13.43;;;2.20;99.90;;;;;;5016364;28;20195;-66
2021/03/02 01:49:05;;;;;;;29.17;14.50;;;2.20;99.90;;;;;;5035509;28;21725;-66
2021/03/02 01:51:31;;;;;;;24.40;14.70;;;2.20;99.90;;;;;;5014812;28;20218;-66
2021/03/02 01:53:58;;;;;;;27.17;15.03;;;2.20;99.90;;;;;;5034200;28;20537;-66
2021/03/02 01:56:24;;;;;;;25.13;15.17;;;2.10;99.90;;;;;;5033276;28;20676;-66
2021/03/02 01:58:49;;;;;;;29.10;14.10;;;2.10;99.90;;;;;;5033359;28;20217;-66
2021/03/02 02:01:17;;;;;;;29.63;15.90;;;2.10;99.90;;;;;;5032679;28;20199;-66
2021/03/02 02:03:43;;;;;;;26.63;14.17;;;2.10;99.90;;;;;;5033649;28;20223;-66
2021/03/02 02:06:25;;;;;;;26.63;14.23;;;2.10;99.90;;;;;;5038964;28;20203;-66
2021/03/02 02:09:05;;;;;;;24.20;15.00;;;2.10;99.90;;;;;;5016912;28;20183;-67
2021/03/02 02:12:00;;;;;;;26.13;15.17;;;2.00;99.90;;;;;;5013295;28;20249;-66
2021/03/02 02:15:01;;;;;;;22.53;13.20;;;2.00;99.90;;;;;;5016227;28;20179;-66
2021/03/02 02:17:30;;;;;;;25.97;14.07;;;2.00;99.90;;;;;;5033120;28;20217;-67
2021/03/02 02:20:22;;;;;;;26.03;14.63;;;2.00;99.90;;;;;;5033711;28;20168;-66
2021/03/02 02:23:03;;;;;;;24.77;14.70;;;2.10;99.90;;;;;;5038237;28;20231;-66
2021/03/02 02:25:44;;;;;;;26.07;14.50;;;2.10;99.90;;;;;;5046252;22;20259;-64
2021/03/02 02:28:12;;;;;;;28.17;14.40;;;2.10;99.90;;;;;;4953535;29;20229;-64
2021/03/02 02:30:43;;;;;;;24.57;14.83;;;2.10;99.90;;;;;;4963892;28;20174;-64
2021/03/02 02:33:12;;;;;;;29.67;16.17;;;2.10;99.90;;;;;;4969639;28;20182;-64
2021/03/02 02:35:40;;;;;;;25.23;15.07;;;2.10;99.90;;;;;;4954069;29;20191;-64
2021/03/02 02:38:08;;;;;;;26.77;13.70;;;2.00;99.90;;;;;;4953951;29;20186;-64
2021/03/02 02:40:36;;;;;;;25.73;13.50;;;2.00;99.90;;;;;;4953546;29;20178;-64
2021/03/02 02:43:03;;;;;;;27.00;12.83;;;2.00;99.90;;;;;;4953238;28;20166;-64
2021/03/02 02:45:29;;;;;;;23.60;14.43;;;1.90;99.90;;;;;;4953907;28;20174;-64
2021/03/02 02:47:56;;;;;;;27.97;14.20;;;1.90;99.90;;;;;;4953859;29;20237;-64
2021/03/02 02:50:23;;;;;;;24.83;13.47;;;1.90;99.90;;;;;;4953640;29;20236;-63
2021/03/02 02:52:49;;;;;;;27.13;14.63;;;1.90;99.90;;;;;;4953899;29;20174;-69
2021/03/02 02:55:34;;;;;;;28.47;15.83;;;1.80;99.90;;;;;;4956135;29;20622;-70
2021/03/02 02:58:01;;;;;;;28.93;15.37;;;1.90;99.90;;;;;;4955716;29;20705;-66
2021/03/02 03:00:28;;;;;;;28.53;15.13;;;1.80;99.90;;;;;;4955644;28;20175;-69
2021/03/02 03:02:55;;;;;;;25.30;15.07;;;1.80;99.90;;;;;;4955385;28;20583;-70
2021/03/02 03:05:23;;;;;;;29.23;15.43;;;1.80;99.90;;;;;;4955713;28;20197;-67
2021/03/02 03:07:57;;;;;;;26.73;15.13;;;1.80;99.90;;;;;;4956186;28;20270;-70
2021/03/02 03:10:27;;;;;;;32.07;15.63;;;1.80;99.90;;;;;;4954866;28;20174;-66
2021/03/02 03:12:57;;;;;;;30.60;16.40;;;1.70;99.90;;;;;;4955925;28;20556;-67
2021/03/02 03:15:24;;;;;;;28.97;16.30;;;1.70;99.90;;;;;;4955673;28;20178;-65
2021/03/02 03:17:54;;;;;;;25.33;14.40;;;1.70;99.90;;;;;;4955575;29;20800;-67
2021/03/02 03:20:21;;;;;;;28.63;14.67;;;1.60;99.90;;;;;;4954799;29;20201;-69
2021/03/02 03:22:48;;;;;;;27.23;13.70;;;1.60;99.90;;;;;;4955312;28;20174;-69
2021/03/02 03:25:14;;;;;;;32.07;14.37;;;1.50;99.90;;;;;;4955269;29;20189;-68
2021/03/02 03:27:45;;;;;;;22.83;13.13;;;1.60;99.90;;;;;;4955773;28;20599;-69
2021/03/02 03:30:12;;;;;;;27.73;14.90;;;1.60;99.90;;;;;;4955097;29;20185;-66
2021/03/02 03:32:41;;;;;;;20.17;12.47;;;1.50;99.90;;;;;;4938178;29;20587;-67
2021/03/02 03:35:08;;;;;;;24.43;13.50;;;1.50;99.90;;;;;;4938046;29;20209;-66
2021/03/02 03:37:34;;;;;;;29.40;14.30;;;1.60;99.90;;;;;;4955274;28;20206;-69
2021/03/02 03:40:00;;;;;;;32.80;15.93;;;1.50;99.90;;;;;;4955201;29;20190;-66
2021/03/02 03:42:26;;;;;;;32.83;16.53;;;1.50;99.90;;;;;;4953972;28;20198;-67
2021/03/02 03:44:51;;;;;;;32.70;18.07;;;1.50;99.90;;;;;;4955095;28;20213;-67
2021/03/02 03:47:17;;;;;;;32.73;18.87;;;1.50;99.90;;;;;;4955261;29;20194;-66
2021/03/02 03:49:43;;;;;;;27.10;15.73;;;1.50;99.90;;;;;;4955223;28;20182;-66
2021/03/02 03:52:12;;;;;;;29.77;16.13;;;1.50;99.90;;;;;;4955551;29;20174;-70
2021/03/02 03:54:37;;;;;;;24.07;13.60;;;1.60;99.90;;;;;;4955186;28;20179;-66
2021/03/02 03:57:05;;;;;;;31.33;14.90;;;1.50;99.90;;;;;;4955162;29;20210;-69
2021/03/02 03:59:31;;;;;;;26.90;15.33;;;1.50;99.90;;;;;;4955128;29;20250;-67
2021/03/02 04:01:57;;;;;;;25.87;14.80;;;1.60;99.90;;;;;;4955087;29;20230;-68
2021/03/02 04:04:25;;;;;;;30.30;16.60;;;1.80;99.90;;;;;;4955004;29;20261;-67
2021/03/02 04:06:51;;;;;;;27.13;14.40;;;1.80;99.90;;;;;;4955373;28;20258;-70
2021/03/02 04:09:18;;;;;;;27.80;13.70;;;1.80;99.90;;;;;;4954427;29;20186;-70
2021/03/02 04:11:43;;;;;;;22.40;12.63;;;1.80;99.90;;;;;;4954722;28;20180;-68
2021/03/02 04:14:09;;;;;;;22.60;13.73;;;1.80;99.90;;;;;;4955065;28;20209;-68
2021/03/02 04:16:38;;;;;;;26.03;14.47;;;1.80;99.90;;;;;;4958787;28;20261;-70
2021/03/02 04:19:05;;;;;;;23.90;14.07;;;1.60;99.90;;;;;;4958560;29;20205;-68
2021/03/02 04:21:31;;;;;;;24.77;14.57;;;1.50;99.90;;;;;;4958720;28;20166;-66
2021/03/02 04:23:57;;;;;;;25.83;15.13;;;1.50;99.90;;;;;;4958952;29;20264;-70
2021/03/02 04:26:22;;;;;;;22.97;14.07;;;1.50;99.90;;;;;;4958251;28;20206;-67
2021/03/02 04:28:48;;;;;;;24.77;13.67;;;1.40;99.90;;;;;;4941435;29;20213;-68
2021/03/02 04:31:13;;;;;;;31.57;13.67;;;1.40;99.90;;;;;;4958589;29;20179;-67
2021/03/02 04:33:39;;;;;;;27.20;13.93;;;1.40;99.90;;;;;;4958434;28;20171;-67
2021/03/02 04:36:05;;;;;;;30.07;17.03;;;1.30;99.90;;;;;;4958321;28;20206;-66
2021/03/02 04:38:31;;;;;;;31.97;16.07;;;1.30;99.90;;;;;;4957835;28;20257;-66
2021/03/02 04:40:57;;;;;;;32.03;15.83;;;1.30;99.90;;;;;;4958332;29;20664;-67
2021/03/02 04:43:23;;;;;;;32.50;16.43;;;1.20;99.90;;;;;;4957622;28;20174;-68
2021/03/02 04:45:49;;;;;;;31.47;15.93;;;1.20;99.90;;;;;;4958095;28;20197;-69
2021/03/02 04:48:14;;;;;;;35.03;16.53;;;1.20;99.90;;;;;;4958060;29;20178;-68
2021/03/02 04:50:40;;;;;;;30.20;16.17;;;1.10;99.90;;;;;;4957222;28;20174;-67
2021/03/02 04:53:06;;;;;;;31.77;14.47;;;1.20;99.90;;;;;;4958047;29;20170;-68
2021/03/02 04:55:31;;;;;;;30.03;15.33;;;1.20;99.90;;;;;;4940808;29;20648;-67
2021/03/02 04:57:57;;;;;;;28.43;15.47;;;1.10;99.90;;;;;;4957984;28;20687;-68
2021/03/02 05:00:23;;;;;;;27.03;14.57;;;1.10;99.90;;;;;;4957722;28;20558;-67
2021/03/02 05:02:49;;;;;;;28.63;13.73;;;1.20;99.90;;;;;;4957827;29;20187;-69
2021/03/02 05:05:15;;;;;;;30.87;14.53;;;1.20;99.90;;;;;;4939155;29;20193;-65
2021/03/02 05:07:40;;;;;;;25.27;14.23;;;1.20;99.90;;;;;;4955522;29;20272;-64
2021/03/02 05:10:06;;;;;;;28.40;13.57;;;1.20;99.90;;;;;;4954663;29;20532;-64
2021/03/02 05:12:32;;;;;;;27.90;14.07;;;1.20;99.90;;;;;;4955172;28;20190;-65
2021/03/02 05:14:58;;;;;;;24.93;13.07;;;1.20;99.90;;;;;;4955723;29;20704;-64
2021/03/02 05:17:23;;;;;;;28.60;14.03;;;1.20;99.90;;;;;;4955217;29;20574;-65
2021/03/02 05:19:49;;;;;;;26.07;13.40;;;1.20;99.90;;;;;;4955420;28;20182;-64
2021/03/02 05:22:15;;;;;;;22.07;12.23;;;1.20;99.90;;;;;;4955208;29;20186;-63
2021/03/02 05:24:40;;;;;;;21.67;11.83;;;1.20;99.90;;;;;;4955258;29;20636;-64
2021/03/02 05:27:06;;;;;;;21.47;11.07;;;1.10;99.90;;;;;;4954279;28;20221;-64
2021/03/02 05:29:31;;;;;;;24.27;12.13;;;1.10;99.90;;;;;;4955266;28;20614;-65
2021/03/02 05:31:57;;;;;;;23.40;12.83;;;1.20;99.90;;;;;;4955133;29;20265;-64
2021/03/02 05:34:23;;;;;;;19.53;11.03;;;1.20;99.90;;;;;;4954972;29;20190;-64
2021/03/02 05:36:49;;;;;;;22.23;11.43;;;1.30;99.90;;;;;;4955848;29;20222;-63
2021/03/02 05:39:14;;;;;;;24.27;12.43;;;1.40;99.90;;;;;;4956892;29;20197;-64
2021/03/02 05:41:42;;;;;;;20.97;11.40;;;1.50;99.90;;;;;;4956322;29;20186;-64
2021/03/02 05:44:10;;;;;;;21.30;11.63;;;1.60;99.90;;;;;;4954991;29;20528;-64
2021/03/02 05:46:37;;;;;;;22.57;11.43;;;1.80;99.90;;;;;;4954604;28;20296;-64
2021/03/02 05:49:04;;;;;;;20.53;11.33;;;1.90;99.90;;;;;;4955149;29;20186;-64
2021/03/02 05:51:30;;;;;;;23.93;11.67;;;2.00;99.90;;;;;;4954214;29;20178;-64
2021/03/02 05:53:57;;;;;;;21.93;12.47;;;2.10;99.90;;;;;;4955008;29;20210;-64
2021/03/02 05:56:23;;;;;;;28.20;13.33;;;2.30;99.90;;;;;;4954460;29;20202;-64
2021/03/02 05:58:51;;;;;;;20.57;11.53;;;2.40;99.90;;;;;;4954562;29;20541;-64
2021/03/02 06:01:17;;;;;;;25.57;11.47;;;2.50;99.90;;;;;;4954564;29;20186;-63
2021/03/02 06:03:43;;;;;;;22.83;12.53;;;2.50;99.90;;;;;;4954538;29;20182;-62
2021/03/02 06:06:08;;;;;;;21.80;13.30;;;2.60;99.90;;;;;;4954576;28;20206;-64
2021/03/02 06:08:34;;;;;;;22.60;13.07;;;2.70;99.90;;;;;;4953585;29;20637;-64
2021/03/02 06:11:21;;;;;;;19.60;12.23;;;2.70;99.90;;;;;;4954385;29;20179;-63
2021/03/02 06:13:47;;;;;;;16.90;10.63;;;2.70;99.90;;;;;;4954412;28;20196;-64
2021/03/02 06:16:12;;;;;;;19.63;10.80;;;2.80;99.90;;;;;;4954416;29;20293;-65
2021/03/02 06:18:50;;;;;;;22.77;11.07;;;2.80;99.90;;;;;;4954094;29;20599;-64
2021/03/02 06:21:16;;;;;;;22.33;12.03;;;2.80;99.90;;;;;;4954131;29;20201;-64
2021/03/02 06:23:53;;;;;;;23.77;11.00;;;2.80;99.90;;;;;;4954065;28;20171;-64
2021/03/02 06:26:24;;;;;;;19.83;10.70;;;2.80;99.90;;;;;;4954185;28;20222;-65
2021/03/02 06:28:57;;;;;;;19.67;11.07;;;2.80;99.90;;;;;;4953801;29;20182;-63
2021/03/02 06:31:39;;;;;;;20.63;10.97;;;2.80;99.90;;;;;;4954072;29;20269;-64
2021/03/02 06:34:08;;;;;;;20.20;10.27;;;2.90;99.90;;;;;;4954033;29;20182;-65
2021/03/02 06:36:35;;;;;;;15.53;9.47;;;2.90;99.90;;;;;;4953732;28;20209;-64
2021/03/02 06:39:19;;;;;;;18.53;11.03;;;2.90;99.90;;;;;;4953838;28;20178;-64
2021/03/02 06:41:45;;;;;;;23.10;10.73;;;2.90;99.90;;;;;;4953403;29;20270;-64
2021/03/02 06:44:12;;;;;;;18.97;10.27;;;3.00;99.90;;;;;;4953309;29;20596;-64
2021/03/02 06:46:41;;;;;;;19.70;10.67;;;3.00;99.90;;;;;;4953584;28;20604;-65
2021/03/02 06:49:06;;;;;;;16.20;10.67;;;3.10;99.90;;;;;;4954063;29;20174;-65
2021/03/02 06:51:34;;;;;;;17.97;9.83;;;3.10;99.90;;;;;;4952651;29;20721;-64
2021/03/02 06:54:10;;;;;;;18.07;10.07;;;3.10;99.90;;;;;;4954111;29;20702;-65
2021/03/02 06:56:39;;;;;;;16.80;9.70;;;3.20;99.90;;;;;;4953524;28;20210;-64
2021/03/02 06:59:12;;;;;;;13.47;9.40;;;3.20;99.90;;;;;;4953676;29;20178;-65
2021/03/02 07:01:39;;;;;;;18.53;10.50;;;3.20;99.90;;;;;;4953355;28;20183;-65
2021/03/02 07:04:17;;;;;;;15.07;9.00;;;3.30;99.90;;;;;;4953859;29;20182;-64
2021/03/02 07:06:43;;;;;;;15.60;9.00;;;3.30;99.90;;;;;;4953257;29;20216;-65
2021/03/02 07:09:15;;;;;;;14.03;9.73;;;3.40;99.90;;;;;;4935949;29;20233;-63
2021/03/02 07:11:41;;;;;;;13.27;9.00;;;3.40;99.90;;;;;;4953350;28;20716;-63
2021/03/02 07:14:09;;;;;;;16.10;9.10;;;3.50;99.90;;;;;;4951777;29;20186;-63
2021/03/02 07:16:55;;;;;;;16.10;9.27;;;3.50;99.90;;;;;;4953143;28;20217;-65
2021/03/02 07:19:22;;;;;;;17.13;8.87;;;3.60;99.90;;;;;;4953207;28;20189;-65
2021/03/02 07:21:57;;;;;;;13.33;9.20;;;3.70;99.90;;;;;;4953154;29;20532;-64
2021/03/02 07:24:26;;;;;;;17.27;8.93;;;3.90;99.90;;;;;;4953342;29;20178;-65
2021/03/02 07:26:55;;;;;;;14.50;7.97;;;4.40;99.90;;;;;;4953215;28;20648;-64
2021/03/02 07:29:21;;;;;;;10.37;7.70;;;4.80;99.90;;;;;;4953343;28;20644;-65
2021/03/02 07:31:47;;;;;;;9.87;6.07;;;5.20;99.90;;;;;;4952929;29;20186;-65
2021/03/02 07:34:13;;;;;;;8.83;5.87;;;5.80;99.90;;;;;;4953204;29;20264;-65
2021/03/02 07:36:41;;;;;;;9.60;5.87;;;6.20;99.90;;;;;;4952927;28;20245;-65
2021/03/02 07:39:19;;;;;;;7.63;5.60;;;6.60;99.90;;;;;;4953243;29;20201;-65
2021/03/02 07:41:49;;;;;;;9.30;6.13;;;6.90;99.90;;;;;;4933806;29;20556;-65
2021/03/02 07:44:19;;;;;;;8.50;5.83;;;7.20;99.90;;;;;;4946157;29;20182;-65
2021/03/02 07:46:45;;;;;;;7.03;5.30;;;7.40;99.90;;;;;;4952866;29;20284;-64
2021/03/02 07:49:23;;;;;;;9.50;6.00;;;7.60;99.90;;;;;;4953115;28;20213;-65
2021/03/02 07:52:00;;;;;;;8.80;5.67;;;8.00;99.90;;;;;;4956278;28;20185;-63
2021/03/02 07:54:30;;;;;;;10.30;6.13;;;8.40;99.90;;;;;;4956740;29;20569;-63
2021/03/02 07:57:14;;;;;;;6.53;5.40;;;8.70;99.90;;;;;;4956649;28;20249;-64
2021/03/02 07:59:43;;;;;;;7.67;5.57;;;8.90;99.90;;;;;;4956706;28;20718;-65
2021/03/02 08:02:19;;;;;;;8.23;5.10;;;9.20;99.90;;;;;;4956899;29;20269;-65
2021/03/02 08:04:49;;;;;;;7.77;5.87;;;9.60;99.90;;;;;;4956297;29;20185;-64
2021/03/02 08:07:21;;;;;;;6.90;5.10;;;9.90;99.90;;;;;;4956460;28;20202;-62
2021/03/02 08:09:51;;;;;;;9.43;5.80;;;10.30;99.90;;;;;;4952058;29;20210;-63
2021/03/02 08:12:31;;;;;;;9.17;5.80;;;10.60;99.90;;;;;;4956777;29;20174;-63
2021/03/02 08:14:58;;;;;;;9.17;5.57;;;10.70;99.90;;;;;;4956359;28;20193;-63
2021/03/02 08:17:25;;;;;;;10.77;5.93;;;10.80;99.90;;;;;;4956331;29;20647;-63
2021/03/02 08:20:06;;;;;;;15.63;6.00;;;10.90;99.90;;;;;;4956006;29;20186;-63
2021/03/02 08:22:33;;;;;;;9.67;5.23;;;10.90;99.90;;;;;;4955728;29;20170;-63
2021/03/02 08:25:09;;;;;;;7.50;5.10;;;11.00;99.90;;;;;;4956316;29;20196;-62
2021/03/02 08:27:48;;;;;;;7.60;5.47;;;11.10;99.90;;;;;;4983255;22;20225;-65
2021/03/02 08:30:22;;;;;;;8.70;6.00;;;11.30;99.90;;;;;;4987105;28;20538;-64
2021/03/02 08:32:48;;;;;;;8.70;5.80;;;11.40;99.90;;;;;;4994884;28;20677;-65
2021/03/02 08:35:20;;;;;;;7.67;4.90;;;11.50;99.90;;;;;;4983544;28;20173;-63
2021/03/02 08:37:54;;;;;;;10.60;5.33;;;11.70;99.90;;;;;;4975364;28;20216;-64
2021/03/02 08:40:44;;;;;;;7.97;5.60;;;11.90;99.90;;;;;;4975292;28;20192;-65
2021/03/02 08:43:15;;;;;;;7.37;5.03;;;12.10;99.90;;;;;;4974927;28;20273;-65
2021/03/02 08:45:45;;;;;;;10.10;6.03;;;12.30;99.90;;;;;;4975125;28;20526;-64
2021/03/02 08:48:19;;;;;;;8.23;6.20;;;12.50;99.90;;;;;;4975249;28;20288;-64
2021/03/02 08:50:46;;;;;;;9.03;5.63;;;12.50;99.90;;;;;;4974765;28;20680;-64
2021/03/02 08:53:41;;;;;;;9.63;6.10;;;12.60;99.90;;;;;;4975523;28;20249;-65
2021/03/02 08:56:08;;;;;;;10.53;6.50;;;12.90;99.90;;;;;;4974769;28;20232;-64
2021/03/02 08:58:40;;;;;;;8.30;5.60;;;13.20;99.90;;;;;;4975239;28;20713;-64
2021/03/02 09:01:09;;;;;;;7.13;5.63;;;13.30;99.90;;;;;;4973601;28;20232;-64
2021/03/02 09:03:38;;;;;;;12.67;5.90;;;13.30;99.90;;;;;;4974768;28;20178;-65
2021/03/02 09:06:18;;;;;;;9.33;5.90;;;13.40;99.90;;;;;;4975327;28;20173;-65
2021/03/02 09:08:48;;;;;;;7.17;5.43;;;13.40;99.90;;;;;;4974724;28;20655;-64
2021/03/02 09:11:19;;;;;;;8.97;5.40;;;13.50;99.90;;;;;;4974691;28;20204;-65
2021/03/02 09:13:46;;;;;;;10.50;5.73;;;13.60;99.90;;;;;;4974621;28;20209;-65
2021/03/02 09:16:37;;;;;;;12.27;6.40;;;13.50;99.90;;;;;;4974768;28;20646;-65
2021/03/02 09:19:12;;;;;;;8.30;5.70;;;13.60;99.90;;;;;;4974581;28;20547;-66
2021/03/02 09:21:44;;;;;;;8.10;5.57;;;13.70;99.90;;;;;;4974367;28;20586;-66
2021/03/02 09:24:13;;;;;;;10.27;5.63;;;13.80;99.90;;;;;;4974644;28;20182;-65
2021/03/02 09:26:39;;;;;;;10.53;6.50;;;14.00;99.90;;;;;;4974268;28;20205;-66
2021/03/02 09:29:08;;;;;;;8.37;6.53;;;14.20;99.90;;;;;;4974367;28;20268;-65
2021/03/02 09:31:34;;;;;;;9.50;6.50;;;14.30;99.90;;;;;;4973992;28;20189;-65
2021/03/02 09:34:00;;;;;;;10.73;7.00;;;14.20;99.90;;;;;;4974364;28;20189;-65
2021/03/02 09:36:30;;;;;;;7.60;5.40;;;14.30;99.90;;;;;;4974400;28;20263;-65
2021/03/02 09:38:57;;;;;;;10.87;6.40;;;14.60;99.90;;;;;;4974079;28;20725;-66
2021/03/02 09:41:34;;;;;;;10.50;6.50;;;14.80;99.90;;;;;;4974179;28;20174;-66
2021/03/02 09:44:20;;;;;;;10.20;6.43;;;15.00;99.90;;;;;;4974000;28;20207;-65
2021/03/02 09:46:47;;;;;;;9.07;6.40;;;15.10;99.90;;;;;;4973822;28;20705;-66
2021/03/02 09:49:33;;;;;;;10.27;6.87;;;15.30;99.90;;;;;;4973867;28;20169;-66
2021/03/02 09:51:59;;;;;;;11.60;6.93;;;15.10;99.90;;;;;;4973699;28;20178;-65
2021/03/02 09:54:25;;;;;;;9.90;6.43;;;15.00;99.90;;;;;;4973737;28;20173;-66
2021/03/02 09:56:58;;;;;;;10.23;6.47;;;14.90;99.90;;;;;;4973638;28;20209;-65
2021/03/02 09:59:25;;;;;;;9.70;6.17;;;14.80;99.90;;;;;;4973568;28;20636;-65
2021/03/02 10:01:52;;;;;;;10.70;6.90;;;14.90;99.90;;;;;;4973488;28;20174;-65
2021/03/02 10:04:18;;;;;;;12.60;6.97;;;14.80;99.90;;;;;;4973457;28;20174;-66
2021/03/02 10:06:45;;;;;;;10.30;6.30;;;14.90;99.90;;;;;;4973471;28;20185;-66
2021/03/02 10:09:23;;;;;;;8.27;6.07;;;14.90;99.90;;;;;;4973619;28;20213;-64
2021/03/02 10:12:10;;;;;;;7.00;5.37;;;15.00;99.90;;;;;;4973367;28;20748;-64
2021/03/02 10:14:40;;;;;;;9.10;6.47;;;15.20;99.90;;;;;;4973082;28;20184;-66
2021/03/02 10:17:06;;;;;;;9.13;5.83;;;15.30;99.90;;;;;;4973395;28;20215;-66
2021/03/02 10:19:33;;;;;;;11.77;6.90;;;15.60;99.90;;;;;;4973213;28;20301;-66
2021/03/02 10:22:00;;;;;;;12.13;7.10;;;16.00;99.90;;;;;;4973238;28;20182;-66
2021/03/02 10:24:39;;;;;;;10.13;5.97;;;16.10;99.90;;;;;;4973293;28;20193;-66
2021/03/02 10:27:18;;;;;;;10.43;7.27;;;16.20;99.90;;;;;;4972936;28;20247;-66
2021/03/02 10:29:45;;;;;;;7.83;6.47;;;16.30;99.90;;;;;;4972858;28;20180;-66
2021/03/02 10:32:11;;;;;;;9.50;6.33;;;16.70;99.90;;;;;;4972909;28;20174;-66
2021/03/02 10:34:37;;;;;;;12.93;7.30;;;16.90;99.90;;;;;;4973025;28;20173;-66
2021/03/02 10:37:07;;;;;;;10.23;7.03;;;16.90;99.90;;;;;;4973007;28;20299;-65
2021/03/02 10:39:34;;;;;;;9.17;6.37;;;17.00;99.90;;;;;;4972977;28;20462;-65
2021/03/02 10:42:01;;;;;;;13.27;6.83;;;17.10;99.90;;;;;;4972684;28;20542;-65
2021/03/02 10:44:27;;;;;;;10.20;7.73;;;17.20;99.90;;;;;;4973003;28;20178;-66
2021/03/02 10:46:53;;;;;;;9.93;7.03;;;17.20;99.90;;;;;;4972696;28;20572;-64
2021/03/02 10:49:19;;;;;;;10.37;6.60;;;17.40;99.90;;;;;;4973035;28;20174;-66
2021/03/02 10:51:44;;;;;;;11.60;7.23;;;17.60;99.90;;;;;;4972377;28;20185;-67
2021/03/02 10:54:11;;;;;;;9.50;7.07;;;17.80;99.90;;;;;;4972996;28;20173;-65
2021/03/02 10:56:37;;;;;;;10.00;6.97;;;17.90;99.90;;;;;;4972320;28;20213;-66
2021/03/02 10:59:04;;;;;;;10.70;7.40;;;17.80;99.90;;;;;;4973189;28;20233;-65
2021/03/02 11:01:30;;;;;;;10.03;6.70;;;17.70;99.90;;;;;;4972136;28;20185;-65
2021/03/02 11:03:56;;;;;;;9.33;7.00;;;17.80;99.90;;;;;;4972763;28;20584;-64
2021/03/02 11:06:25;;;;;;;11.90;6.87;;;18.00;99.90;;;;;;4972691;28;20201;-66
2021/03/02 11:08:51;;;;;;;13.20;7.27;;;18.20;99.90;;;;;;4955170;28;20181;-65
2021/03/02 11:11:18;;;;;;;13.13;7.00;;;18.10;99.90;;;;;;4972236;28;20189;-66
2021/03/02 11:13:44;;;;;;;11.23;7.07;;;18.20;99.90;;;;;;4972571;28;20232;-65
2021/03/02 11:16:10;;;;;;;8.53;6.23;;;18.40;99.90;;;;;;4972323;28;20186;-66
2021/03/02 11:18:36;;;;;;;8.53;6.70;;;18.40;99.90;;;;;;4972614;28;20174;-66
2021/03/02 11:21:02;;;;;;;11.33;7.50;;;18.40;99.90;;;;;;4972037;28;20181;-66
2021/03/02 11:23:27;;;;;;;9.75;7.55;;;18.40;99.90;;;;;;4972453;28;20169;-65
2021/03/02 11:25:53;;;;;;;10.63;7.33;;;18.60;99.90;;;;;;4972028;28;20277;-65
2021/03/02 11:28:19;;;;;;;12.23;7.22;;;18.90;99.90;;;;;;4972505;28;20263;-66
2021/03/02 11:30:46;;;;;;;9.95;7.57;;;19.30;99.90;;;;;;4971601;28;20177;-66
2021/03/02 11:33:12;;;;;;;10.43;7.57;;;19.70;99.90;;;;;;4972519;28;20170;-66
2021/03/02 11:35:38;;;;;;;12.70;7.65;;;19.60;99.90;;;;;;4972285;28;20182;-66
2021/03/02 11:38:04;;;;;;;12.20;7.63;;;19.70;99.90;;;;;;4972346;28;20214;-66
2021/03/02 11:40:31;;;;;;;8.57;6.93;;;19.60;99.90;;;;;;4971456;28;20209;-66
2021/03/02 11:42:57;;;;;;;11.77;7.53;;;19.80;99.90;;;;;;4972055;28;20659;-66
2021/03/02 11:45:25;;;;;;;10.85;7.10;;;19.70;99.90;;;;;;4972397;28;20181;-65
2021/03/02 11:47:51;;;;;;;12.60;7.47;;;19.40;99.90;;;;;;4972151;28;20785;-65
2021/03/02 11:50:18;;;;;;;13.43;7.82;;;19.30;99.90;;;;;;4971692;28;20186;-65
2021/03/02 11:52:44;;;;;;;12.10;7.00;;;19.30;99.90;;;;;;4972358;28;20209;-65
2021/03/02 11:55:10;;;;;;;11.60;7.27;;;19.20;99.90;;;;;;4972192;28;20177;-65
2021/03/02 11:57:36;;;;;;;10.75;7.63;;;19.10;99.90;;;;;;4971958;28;20209;-66
2021/03/02 12:00:05;;;;;;;14.32;7.70;;;19.20;99.90;;;;;;4972524;28;20594;-65
2021/03/02 12:02:31;;;;;;;15.05;7.57;;;19.40;99.90;;;;;;4972217;28;20173;-67
2021/03/02 12:04:56;;;;;;;14.17;7.93;;;19.40;99.90;;;;;;4972140;28;20192;-66
2021/03/02 12:07:23;;;;;;;14.90;8.07;;;19.40;99.90;;;;;;4973009;28;20185;-66
2021/03/02 12:09:48;;;;;;;13.93;7.53;;;19.80;99.90;;;;;;4972450;28;20235;-68
2021/03/02 12:12:14;;;;;;;11.95;8.05;;;20.00;99.90;;;;;;4972282;28;20278;-65
2021/03/02 12:14:40;;;;;;;11.90;8.05;;;20.10;99.90;;;;;;4971954;28;20618;-68
2021/03/02 12:17:05;;;;;;;12.70;8.10;;;20.30;99.90;;;;;;4972304;28;20228;-67
2021/03/02 12:19:31;;;;;;;10.73;7.63;;;20.30;99.90;;;;;;4972325;28;20257;-66
2021/03/02 12:21:57;;;;;;;14.75;8.13;;;20.40;99.90;;;;;;4971569;28;20252;-65
2021/03/02 12:24:22;;;;;;;14.00;7.90;;;20.30;99.90;;;;;;4972193;28;20659;-67
2021/03/02 12:26:49;;;;;;;14.15;8.45;;;20.50;99.90;;;;;;4972355;28;20612;-66
2021/03/02 12:29:15;;;;;;;12.63;8.45;;;20.90;99.90;;;;;;4972489;28;20189;-67
2021/03/02 12:31:42;;;;;;;14.27;8.10;;;21.00;99.90;;;;;;4971739;28;20677;-66
2021/03/02 12:34:07;;;;;;;14.23;8.20;;;20.80;99.90;;;;;;4971872;28;20201;-65
2021/03/02 12:36:34;;;;;;;11.45;7.70;;;20.90;99.90;;;;;;4973938;28;20205;-65
2021/03/02 12:39:00;;;;;;;11.30;7.82;;;21.00;99.90;;;;;;4974957;28;20950;-66
2021/03/02 12:41:25;;;;;;;13.82;8.32;;;21.00;99.90;;;;;;4975002;28;20177;-66
2021/03/02 12:43:51;;;;;;;10.75;8.13;;;21.20;99.90;;;;;;4975126;28;20186;-65
2021/03/02 12:46:17;;;;;;;13.00;8.90;;;21.10;99.90;;;;;;4974664;28;20272;-65
2021/03/02 12:48:43;;;;;;;13.65;8.40;;;21.30;99.90;;;;;;4975271;28;20254;-65